Ana Sayfa
METAR-TAF:

METAR-TAF

Havaalanları :

Lüksemburg-Findel Havalimanı

Lüksemburg, Lüksemburg

Enlem: 49-37N, Boylam: 006-13E, yükseklik: 376 m

Güncel hava durumu gözlemi

Rapor saat 17:50 UTC de 37 dakika önce yapıldı.
Rüzgar doğu/kuzeydoğudan 7 kt, kuzeydoğu ve doğu/güneydoğu arasında değişken
Sıcaklık 18°C
Nem 37%
Basınç 1022 hPa
Görüş mesafesi 10 km veya daha fazla
1500 m altında bulut yok ve kümülonimbus yok

METAR: ELLX 181750Z 07007KT 040V110 CAVOK 18/03 Q1022 NOSIG

Saat: 20:27 (18:27 UTC)

Tahmin

Rapor saat 17:00 UTC de 1 saat ve 27 dakika önce yapıldı.
Ayın 18'si saat 18 UTC'den ayın 19'si saat 24 UTC'ye kadar geçerli Tahmin
Rüzgar doğudan 10 kt
Görüş mesafesi 10 km veya daha fazla
1500 m altında bulut yok ve kümülonimbus yok

TAF: ELLX 181700Z 1818/1924 09010KT CAVOK

4.000'den fazla havaalanı için hava durumu gözlemleri ve tahminleri (METAR ve TAF raporları).

Kullanılabilir istasyonlar harita üzerinde sarı ve kırmızı noktalarla gösterilir.

İstasyonun adını görmek için fareyi noktanın üzerinde gezdirin.

Sonrasında hava gözlem ve tahminlerini görmek için tıklayın.

Haritayı değiştirmek için: yaklaştırmak için siyah artı işaretli yeşil düğmeye ve uzaklaştırmak için de eksi işaretli düğmeye hızla tıklayın; bitişik haritalar için yeşil okları kullanın.


METAR-TAF: